createdAt,value
2018-01-04T00:04:34.086Z,94520
2018-01-04T00:10:14.717Z,94535
2018-01-04T00:15:42.902Z,94537
2018-01-04T00:21:14.300Z,94541
2018-01-04T00:26:42.481Z,94545
2018-01-04T00:32:10.682Z,94543
2018-01-04T00:37:41.740Z,94546
2018-01-04T00:43:09.931Z,94536
2018-01-04T00:48:38.171Z,94540
2018-01-04T00:54:08.351Z,94545
2018-01-04T00:59:36.544Z,94562
2018-01-04T01:05:05.547Z,94571
2018-01-04T01:10:41.581Z,94563
2018-01-04T01:16:09.801Z,94567
2018-01-04T01:21:38.776Z,94570
2018-01-04T01:27:06.989Z,94566
2018-01-04T01:32:35.169Z,94553
2018-01-04T01:38:03.377Z,94571
2018-01-04T01:43:31.556Z,94559
2018-01-04T01:49:15.333Z,94549
2018-01-04T01:54:43.567Z,94533
2018-01-04T02:00:11.784Z,94538
2018-01-04T02:05:39.966Z,94561
2018-01-04T02:11:08.938Z,94554
2018-01-04T02:16:37.135Z,94577
2018-01-04T02:22:23.936Z,94564
2018-01-04T02:28:10.054Z,94540
2018-01-04T02:33:56.162Z,94540
2018-01-04T02:39:42.368Z,94543
2018-01-04T02:45:29.245Z,94538
2018-01-04T02:51:11.513Z,94522
2018-01-04T02:56:39.712Z,94532
2018-01-04T03:02:20.286Z,94533
2018-01-04T03:07:48.496Z,94512
2018-01-04T03:13:16.905Z,94523
2018-01-04T03:18:46.126Z,94535
2018-01-04T03:24:14.329Z,94528
2018-01-04T03:29:42.539Z,94523
2018-01-04T03:35:16.304Z,94524
2018-01-04T03:46:56.076Z,94532
2018-01-04T03:52:29.864Z,94544
2018-01-04T03:57:58.842Z,94538
2018-01-04T04:03:27.071Z,94546
2018-01-04T04:08:55.279Z,94538
2018-01-04T04:14:23.724Z,94531
2018-01-04T04:19:52.299Z,94508
2018-01-04T04:25:22.525Z,94513
2018-01-04T04:30:52.275Z,94501
2018-01-04T04:36:21.926Z,94522
2018-01-04T04:41:50.141Z,94498
2018-01-04T04:47:18.388Z,94496
2018-01-04T04:52:46.591Z,94479
2018-01-04T04:58:14.775Z,94492
2018-01-04T05:03:43.724Z,94501
2018-01-04T05:09:11.923Z,94500
2018-01-04T05:14:40.881Z,94512
2018-01-04T05:20:09.851Z,94512
2018-01-04T05:25:39.050Z,94511
2018-01-04T05:31:08.068Z,94501
2018-01-04T05:36:36.445Z,94517
2018-01-04T05:42:04.712Z,94499
2018-01-04T05:47:33.830Z,94499
2018-01-04T05:53:02.028Z,94506
2018-01-04T05:58:32.149Z,94500
2018-01-04T06:04:01.301Z,94512
2018-01-04T06:09:29.500Z,94493
2018-01-04T06:14:57.765Z,94502
2018-01-04T06:20:26.931Z,94492
2018-01-04T06:25:55.173Z,94508
2018-01-04T06:31:24.145Z,94500
2018-01-04T06:36:53.330Z,94476
2018-01-04T06:42:21.547Z,94486
2018-01-04T06:47:49.906Z,94482
2018-01-04T06:53:18.477Z,94485
2018-01-04T06:58:46.672Z,94491
2018-01-04T07:04:15.884Z,94492
2018-01-04T07:09:44.836Z,94498
2018-01-04T07:15:13.037Z,94476
2018-01-04T07:20:42.007Z,94473
2018-01-04T07:26:10.204Z,94478
2018-01-04T07:31:39.159Z,94451
2018-01-04T07:37:07.390Z,94457
2018-01-04T07:42:35.570Z,94468
2018-01-04T07:48:03.782Z,94471
2018-01-04T07:53:31.990Z,94464
2018-01-04T07:59:00.213Z,94446
2018-01-04T08:04:30.488Z,94451
2018-01-04T08:10:07.340Z,94463
2018-01-04T08:15:36.546Z,94452
2018-01-04T08:21:04.820Z,94472
2018-01-04T08:26:33.112Z,94478
2018-01-04T08:32:01.498Z,94466
2018-01-04T08:37:29.707Z,94468
2018-01-04T08:42:57.892Z,94455
2018-01-04T08:48:26.877Z,94458
2018-01-04T08:53:55.093Z,94454
2018-01-04T08:59:23.354Z,94456
2018-01-04T09:04:57.912Z,94452
2018-01-04T09:10:26.110Z,94449
2018-01-04T09:15:54.313Z,94444
2018-01-04T09:21:23.495Z,94449
2018-01-04T09:26:51.723Z,94442
2018-01-04T09:32:20.863Z,94446
2018-01-04T09:43:30.045Z,94450
2018-01-04T09:48:58.278Z,94443
2018-01-04T09:54:26.696Z,94442
2018-01-04T09:59:54.907Z,94432
2018-01-04T10:05:25.506Z,94426
2018-01-04T10:10:54.529Z,94438
2018-01-04T10:16:23.596Z,94429
2018-01-04T10:21:51.850Z,94422
2018-01-04T10:27:20.454Z,94399
2018-01-04T10:32:52.387Z,94403
2018-01-04T10:38:24.400Z,94379
2018-01-04T10:43:52.631Z,94373
2018-01-04T10:49:20.857Z,94367
2018-01-04T10:54:49.077Z,94363
2018-01-04T11:00:19.235Z,94330
2018-01-04T11:05:48.371Z,94329
2018-01-04T11:11:16.590Z,94313
2018-01-04T11:16:44.809Z,94302
2018-01-04T11:22:15.157Z,94292
2018-01-04T11:27:43.404Z,94272
2018-01-04T11:33:12.733Z,94269
2018-01-04T11:38:40.981Z,94262
2018-01-04T11:44:09.187Z,94239
2018-01-04T11:49:37.693Z,94237
2018-01-04T11:55:11.739Z,94235
2018-01-04T12:00:39.939Z,94219
2018-01-04T12:06:08.922Z,94213
2018-01-04T12:11:37.106Z,94207
2018-01-04T12:17:06.081Z,94193
2018-01-04T12:22:34.288Z,94178
2018-01-04T12:28:02.578Z,94179
2018-01-04T12:33:35.857Z,94168
2018-01-04T12:39:04.066Z,94152
2018-01-04T12:44:32.262Z,94139
2018-01-04T12:50:03.213Z,94134
2018-01-04T12:55:45.379Z,94123
2018-01-04T13:01:20.434Z,94110
2018-01-04T13:06:48.624Z,94092
2018-01-04T13:12:16.824Z,94090
2018-01-04T13:17:45.804Z,94078
2018-01-04T13:23:17.850Z,94080
2018-01-04T13:28:46.073Z,94063
2018-01-04T13:34:14.319Z,94063
2018-01-04T13:39:42.604Z,94059
2018-01-04T13:45:10.807Z,94051
2018-01-04T13:50:50.391Z,94042
2018-01-04T13:56:18.584Z,94050
2018-01-04T14:07:22.077Z,94027
2018-01-04T14:12:51.250Z,94026
2018-01-04T14:18:19.548Z,94019
2018-01-04T14:23:48.503Z,94022
2018-01-04T14:29:16.732Z,93994
2018-01-04T14:34:44.939Z,94014
2018-01-04T14:40:13.167Z,94015
2018-01-04T14:45:41.390Z,94028
2018-01-04T14:51:09.585Z,94016
2018-01-04T14:56:38.566Z,93991
2018-01-04T15:02:06.776Z,93974
2018-01-04T15:07:34.972Z,93987
2018-01-04T15:13:20.774Z,93968
2018-01-04T15:18:49.467Z,93952
2018-01-04T15:24:17.685Z,93971
2018-01-04T15:29:45.884Z,93955
2018-01-04T15:35:14.114Z,93942
2018-01-04T15:40:42.340Z,93943
2018-01-04T15:46:10.540Z,93934
2018-01-04T15:51:39.501Z,93937
2018-01-04T15:57:08.782Z,93941
2018-01-04T16:02:39.104Z,93941
2018-01-04T16:08:07.620Z,93934
2018-01-04T16:13:36.913Z,93931
2018-01-04T16:19:06.094Z,93942
2018-01-04T16:24:48.635Z,93929
2018-01-04T16:30:17.198Z,93945
2018-01-04T16:35:45.464Z,93928
2018-01-04T16:41:13.686Z,93915
2018-01-04T16:46:41.883Z,93923
2018-01-04T16:52:10.154Z,93899
2018-01-04T16:57:38.761Z,93929
2018-01-04T17:03:06.980Z,93954
2018-01-04T17:08:35.185Z,93954
2018-01-04T17:14:03.394Z,93955
2018-01-04T17:19:32.354Z,93970
2018-01-04T17:25:00.561Z,93956
2018-01-04T17:30:28.755Z,93948
2018-01-04T17:35:57.750Z,93951
2018-01-04T17:41:26.953Z,93978
2018-01-04T17:46:57.464Z,93957
2018-01-04T17:52:25.674Z,93946
2018-01-04T17:57:56.202Z,93947
2018-01-04T18:09:17.702Z,93947
2018-01-04T18:14:49.493Z,93960
2018-01-04T18:20:17.739Z,93948
2018-01-04T18:25:47.203Z,93952
2018-01-04T18:31:15.562Z,93947
2018-01-04T18:36:43.842Z,93958
2018-01-04T18:42:12.038Z,93967
2018-01-04T18:47:42.061Z,93968
2018-01-04T18:53:11.052Z,93957
2018-01-04T18:58:39.265Z,93952
2018-01-04T19:04:08.428Z,93945
2018-01-04T19:09:38.774Z,93939
2018-01-04T19:15:06.988Z,93964
2018-01-04T19:20:35.182Z,93956
2018-01-04T19:26:11.878Z,93964
2018-01-04T19:31:47.759Z,93965
2018-01-04T19:37:17.935Z,93960
2018-01-04T19:42:47.023Z,93957
2018-01-04T19:48:15.269Z,93936
2018-01-04T19:53:48.958Z,93928
2018-01-04T19:59:18.891Z,93937
2018-01-04T20:04:47.131Z,93935
2018-01-04T20:10:17.422Z,93933
2018-01-04T20:15:46.397Z,93934
2018-01-04T20:21:14.614Z,93938
2018-01-04T20:26:42.862Z,93931
2018-01-04T20:32:11.122Z,93930
2018-01-04T20:37:39.503Z,93927
2018-01-04T20:43:08.138Z,93932
2018-01-04T20:48:36.455Z,93926
2018-01-04T20:54:04.877Z,93949
2018-01-04T20:59:34.093Z,93933
2018-01-04T21:05:10.360Z,93931
2018-01-04T21:10:38.576Z,93955
2018-01-04T21:16:06.836Z,93954
2018-01-04T21:21:35.822Z,93952
2018-01-04T21:27:05.125Z,93971
2018-01-04T21:32:33.374Z,93941
2018-01-04T21:38:01.569Z,93938
2018-01-04T21:43:31.130Z,93983
2018-01-04T21:48:59.329Z,93962
2018-01-04T21:54:28.376Z,93966
2018-01-04T21:59:57.475Z,93940
2018-01-04T22:05:25.793Z,93952
2018-01-04T22:10:54.127Z,93933
2018-01-04T22:16:22.396Z,93931
2018-01-04T22:21:51.423Z,93936
2018-01-04T22:27:19.681Z,93958
2018-01-04T22:32:47.890Z,93977
2018-01-04T22:38:18.630Z,93967
2018-01-04T22:43:51.449Z,93979
2018-01-04T22:49:19.735Z,93999
2018-01-04T22:54:52.290Z,93982
2018-01-04T23:00:20.579Z,93990
2018-01-04T23:05:48.821Z,93997
2018-01-04T23:11:23.427Z,94013
2018-01-04T23:16:54.320Z,94016
2018-01-04T23:22:22.724Z,94013
2018-01-04T23:27:50.935Z,94032
2018-01-04T23:33:19.166Z,94059
2018-01-04T23:38:47.382Z,94074
2018-01-04T23:44:15.597Z,94137
2018-01-04T23:49:43.843Z,94136
2018-01-04T23:55:12.300Z,94138
